Varnadiep — PBIB — position and weather

sailwx.info

Track history (hours):
 
Tides and Currents Weather Stations Pressure Air Temp Water Temp Dewpoint Dewpoint Depression Visibility Wind Speed Wind Dir Waves Ship Positions

Varnadiep

Last reported at 2014-Aug-22 12:33 UTC. Time now 2014-Aug-23 13:28 UTC.
Position N 48°52' W 005°21'.

Length 118 m; draft 7.3 m.

Type: Cargo ship. MMSI: 244729000.

Date/timePositionNaut miles runAvg speedWind from/ knotsBaromVisibWave heightAir tempDewpointWater temp
2014-Aug-22 12:33N 48°52' W 005°21'  
2014-Aug-19 21:18N 37°28' W 009°29'1011.2
2014-Aug-19 20:23N 37°18' W 009°25'1311.1
2014-Aug-19 19:12N 37°05' W 009°22'711.3
2014-Aug-19 18:33N 36°58' W 009°19'1110.7
2014-Aug-19 17:33N 36°49' W 009°13'2611.1
2014-Aug-19 15:12N 36°39' W 008°42'711.6
2014-Aug-19 14:33N 36°37' W 008°34'2511.2
2014-Aug-19 12:22N 36°30' W 008°04'2311.3
2014-Aug-19 10:20N 36°25' W 007°37'2111.4
2014-Aug-19 08:27N 36°18' W 007°11'2511.4
2014-Aug-19 06:17N 36°11' W 006°42'1211.1
2014-Aug-19 05:12N 36°06' W 006°28'56 1.3
2014-Aug-17 10:33N 36°01' W 005°20'8 7.8
2014-Aug-17 09:33N 35°54' W 005°18'0 0.0
2014-Aug-17 08:31N 35°54' W 005°18'0 0.0
2014-Aug-17 07:31N 35°54' W 005°18'0 0.0
2014-Aug-17 06:33N 35°54' W 005°18'2 2.4
2014-Aug-17 05:33N 35°56' W 005°16'  
2014-Aug-14 01:20N 37°37' E 009°06'7 9.4
2014-Aug-14 00:32N 37°39' E 009°15'9 9.0
2014-Aug-13 23:34N 37°41' E 009°26'9 8.8
2014-Aug-13 22:33N 37°43' E 009°37'10 9.4
2014-Aug-13 21:33N 37°46' E 009°48'9 9.4
2014-Aug-13 20:33N 37°48' E 009°60'9 9.5
2014-Aug-13 19:33N 37°50' E 010°11'9 9.0
2014-Aug-13 18:33N 37°52' E 010°23'9 8.5
2014-Aug-13 17:33N 37°54' E 010°33'8 8.2
2014-Aug-13 16:33N 37°56' E 010°43'34 8.3
2014-Aug-13 12:30N 38°05' E 011°24'9 9.4
2014-Aug-13 11:33N 38°07' E 011°35'10 9.5
2014-Aug-13 10:32N 38°10' E 011°47'9 9.1
2014-Aug-13 09:32N 38°12' E 011°58'29 9.7
2014-Aug-13 06:33N 38°18' E 012°34'1010.2
2014-Aug-13 05:33N 38°20' E 012°47'1110.5
2014-Aug-13 04:33N 38°20' E 013°00'1110.8
2014-Aug-13 03:33N 38°20' E 013°14'1110.7
2014-Aug-13 02:33N 38°20' E 013°28'1110.7
2014-Aug-13 01:33N 38°20' E 013°41'1111.0
2014-Aug-13 00:33N 38°20' E 013°55'5611.1
2014-Aug-12 19:33N 38°20' E 015°06'  
Track history (hours):
 
Tides and Currents Weather Stations Pressure Air Temp Water Temp Dewpoint Dewpoint Depression Visibility Wind Speed Wind Dir Waves Ship Positions

Varnadiep

Last reported at 2014-Aug-22 12:33 UTC. Time now 2014-Aug-23 13:28 UTC.
Position N 48°52' W 005°21'.

Length 118 m; draft 7.3 m.

Type: Cargo ship. MMSI: 244729000.

Date/timePositionNaut miles runAvg speedWind from/ knotsBaromVisibWave heightAir tempDewpointWater temp
2014-Aug-22 12:33N 48°52' W 005°21'  
2014-Aug-19 21:18N 37°28' W 009°29'1011.2
2014-Aug-19 20:23N 37°18' W 009°25'1311.1
2014-Aug-19 19:12N 37°05' W 009°22'711.3
2014-Aug-19 18:33N 36°58' W 009°19'1110.7
2014-Aug-19 17:33N 36°49' W 009°13'2611.1
2014-Aug-19 15:12N 36°39' W 008°42'711.6
2014-Aug-19 14:33N 36°37' W 008°34'2511.2
2014-Aug-19 12:22N 36°30' W 008°04'2311.3
2014-Aug-19 10:20N 36°25' W 007°37'2111.4
2014-Aug-19 08:27N 36°18' W 007°11'2511.4
2014-Aug-19 06:17N 36°11' W 006°42'1211.1
2014-Aug-19 05:12N 36°06' W 006°28'56 1.3
2014-Aug-17 10:33N 36°01' W 005°20'8 7.8
2014-Aug-17 09:33N 35°54' W 005°18'0 0.0
2014-Aug-17 08:31N 35°54' W 005°18'0 0.0
2014-Aug-17 07:31N 35°54' W 005°18'0 0.0
2014-Aug-17 06:33N 35°54' W 005°18'2 2.4
2014-Aug-17 05:33N 35°56' W 005°16'  
2014-Aug-14 01:20N 37°37' E 009°06'7 9.4
2014-Aug-14 00:32N 37°39' E 009°15'9 9.0
2014-Aug-13 23:34N 37°41' E 009°26'9 8.8
2014-Aug-13 22:33N 37°43' E 009°37'10 9.4
2014-Aug-13 21:33N 37°46' E 009°48'9 9.4
2014-Aug-13 20:33N 37°48' E 009°60'9 9.5
2014-Aug-13 19:33N 37°50' E 010°11'9 9.0
2014-Aug-13 18:33N 37°52' E 010°23'9 8.5
2014-Aug-13 17:33N 37°54' E 010°33'8 8.2
2014-Aug-13 16:33N 37°56' E 010°43'34 8.3
2014-Aug-13 12:30N 38°05' E 011°24'9 9.4
2014-Aug-13 11:33N 38°07' E 011°35'10 9.5
2014-Aug-13 10:32N 38°10' E 011°47'9 9.1
2014-Aug-13 09:32N 38°12' E 011°58'29 9.7
2014-Aug-13 06:33N 38°18' E 012°34'1010.2
2014-Aug-13 05:33N 38°20' E 012°47'1110.5
2014-Aug-13 04:33N 38°20' E 013°00'1110.8
2014-Aug-13 03:33N 38°20' E 013°14'1110.7
2014-Aug-13 02:33N 38°20' E 013°28'1110.7
2014-Aug-13 01:33N 38°20' E 013°41'1111.0
2014-Aug-13 00:33N 38°20' E 013°55'5611.1
2014-Aug-12 19:33N 38°20' E 015°06'  

Dump ship's entire track history